sensor_id;sensor_type;location;lat;lon;timestamp;temperature;humidity
3310;DHT22;1667;53.238;10.394;2023-07-20T00:01:05;19.20;90.80
3310;DHT22;1667;53.238;10.394;2023-07-20T00:06:04;19.10;90.80
3310;DHT22;1667;53.238;10.394;2023-07-20T00:11:03;19.10;90.60
3310;DHT22;1667;53.238;10.394;2023-07-20T00:16:03;19.00;90.60
3310;DHT22;1667;53.238;10.394;2023-07-20T00:21:01;18.90;90.60
3310;DHT22;1667;53.238;10.394;2023-07-20T00:26:00;18.90;90.70
3310;DHT22;1667;53.238;10.394;2023-07-20T00:30:59;18.90;90.80
3310;DHT22;1667;53.238;10.394;2023-07-20T00:36:00;18.80;90.80
3310;DHT22;1667;53.238;10.394;2023-07-20T00:40:59;18.70;90.70
3310;DHT22;1667;53.238;10.394;2023-07-20T00:45:58;18.70;90.90
3310;DHT22;1667;53.238;10.394;2023-07-20T00:50:59;18.60;90.80
3310;DHT22;1667;53.238;10.394;2023-07-20T00:55:58;18.60;90.90
3310;DHT22;1667;53.238;10.394;2023-07-20T01:00:57;18.60;90.90
3310;DHT22;1667;53.238;10.394;2023-07-20T01:06:08;18.50;91.00
3310;DHT22;1667;53.238;10.394;2023-07-20T01:11:13;18.50;90.90
3310;DHT22;1667;53.238;10.394;2023-07-20T01:16:14;18.40;90.90
3310;DHT22;1667;53.238;10.394;2023-07-20T01:21:22;18.40;91.00
3310;DHT22;1667;53.238;10.394;2023-07-20T01:26:37;18.40;91.10
3310;DHT22;1667;53.238;10.394;2023-07-20T01:31:41;18.40;91.20
3310;DHT22;1667;53.238;10.394;2023-07-20T01:36:42;18.30;91.30
3310;DHT22;1667;53.238;10.394;2023-07-20T01:41:41;18.30;91.30
3310;DHT22;1667;53.238;10.394;2023-07-20T01:46:42;18.30;91.40
3310;DHT22;1667;53.238;10.394;2023-07-20T01:51:40;18.30;91.50
3310;DHT22;1667;53.238;10.394;2023-07-20T01:56:39;18.30;91.70
3310;DHT22;1667;53.238;10.394;2023-07-20T02:01:38;18.30;91.80
3310;DHT22;1667;53.238;10.394;2023-07-20T02:06:39;18.30;91.80
3310;DHT22;1667;53.238;10.394;2023-07-20T02:11:37;18.30;91.70
3310;DHT22;1667;53.238;10.394;2023-07-20T02:16:36;18.30;91.90
3310;DHT22;1667;53.238;10.394;2023-07-20T02:21:35;18.30;91.70
3310;DHT22;1667;53.238;10.394;2023-07-20T02:26:34;18.30;91.80
3310;DHT22;1667;53.238;10.394;2023-07-20T02:31:33;18.30;91.90
3310;DHT22;1667;53.238;10.394;2023-07-20T02:36:35;18.30;91.90
3310;DHT22;1667;53.238;10.394;2023-07-20T02:41:35;18.30;92.00
3310;DHT22;1667;53.238;10.394;2023-07-20T02:46:33;18.30;92.10
3310;DHT22;1667;53.238;10.394;2023-07-20T02:51:32;18.20;92.10
3310;DHT22;1667;53.238;10.394;2023-07-20T02:56:31;18.20;92.20
3310;DHT22;1667;53.238;10.394;2023-07-20T03:01:31;18.20;92.10
3310;DHT22;1667;53.238;10.394;2023-07-20T03:06:30;18.20;92.30
3310;DHT22;1667;53.238;10.394;2023-07-20T03:11:33;18.20;92.40
3310;DHT22;1667;53.238;10.394;2023-07-20T03:16:33;18.20;92.30
3310;DHT22;1667;53.238;10.394;2023-07-20T03:21:32;18.20;92.60
3310;DHT22;1667;53.238;10.394;2023-07-20T03:26:30;18.20;92.60
3310;DHT22;1667;53.238;10.394;2023-07-20T03:31:29;18.10;92.60
3310;DHT22;1667;53.238;10.394;2023-07-20T03:36:29;18.20;92.70
3310;DHT22;1667;53.238;10.394;2023-07-20T03:41:28;18.20;92.70
3310;DHT22;1667;53.238;10.394;2023-07-20T03:46:27;18.10;92.90
3310;DHT22;1667;53.238;10.394;2023-07-20T03:51:26;18.10;92.80
3310;DHT22;1667;53.238;10.394;2023-07-20T03:56:26;18.10;93.10
3310;DHT22;1667;53.238;10.394;2023-07-20T04:01:25;18.10;92.90
3310;DHT22;1667;53.238;10.394;2023-07-20T04:06:23;18.10;92.90
3310;DHT22;1667;53.238;10.394;2023-07-20T04:11:22;18.10;93.00
3310;DHT22;1667;53.238;10.394;2023-07-20T04:16:48;18.10;93.10
3310;DHT22;1667;53.238;10.394;2023-07-20T04:21:46;18.10;92.90
3310;DHT22;1667;53.238;10.394;2023-07-20T04:26:45;18.10;93.00
3310;DHT22;1667;53.238;10.394;2023-07-20T04:31:44;18.10;93.20
3310;DHT22;1667;53.238;10.394;2023-07-20T04:36:44;18.10;93.20
3310;DHT22;1667;53.238;10.394;2023-07-20T04:41:43;18.10;93.40
3310;DHT22;1667;53.238;10.394;2023-07-20T04:46:42;18.10;93.10
3310;DHT22;1667;53.238;10.394;2023-07-20T04:51:45;18.10;93.40
3310;DHT22;1667;53.238;10.394;2023-07-20T04:56:44;18.20;93.40
3310;DHT22;1667;53.238;10.394;2023-07-20T05:01:44;18.20;93.70
3310;DHT22;1667;53.238;10.394;2023-07-20T05:06:45;18.30;93.70
3310;DHT22;1667;53.238;10.394;2023-07-20T05:11:43;18.30;93.60
3310;DHT22;1667;53.238;10.394;2023-07-20T05:16:44;18.30;93.70
3310;DHT22;1667;53.238;10.394;2023-07-20T05:21:47;18.30;93.90
3310;DHT22;1667;53.238;10.394;2023-07-20T05:26:45;18.30;94.00
3310;DHT22;1667;53.238;10.394;2023-07-20T05:31:44;18.40;94.00
3310;DHT22;1667;53.238;10.394;2023-07-20T05:36:42;18.40;94.10
3310;DHT22;1667;53.238;10.394;2023-07-20T05:41:42;18.40;94.30
3310;DHT22;1667;53.238;10.394;2023-07-20T05:46:41;18.50;94.40
3310;DHT22;1667;53.238;10.394;2023-07-20T05:51:54;18.60;94.50
3310;DHT22;1667;53.238;10.394;2023-07-20T05:56:54;18.60;94.50
3310;DHT22;1667;53.238;10.394;2023-07-20T06:01:52;18.60;94.70
3310;DHT22;1667;53.238;10.394;2023-07-20T06:06:51;18.70;94.80
3310;DHT22;1667;53.238;10.394;2023-07-20T06:11:49;18.70;94.80
3310;DHT22;1667;53.238;10.394;2023-07-20T06:16:49;18.80;94.80
3310;DHT22;1667;53.238;10.394;2023-07-20T06:21:47;18.80;94.80
3310;DHT22;1667;53.238;10.394;2023-07-20T06:26:47;18.90;94.80
3310;DHT22;1667;53.238;10.394;2023-07-20T06:31:45;18.90;94.80
3310;DHT22;1667;53.238;10.394;2023-07-20T06:36:45;18.90;94.90
3310;DHT22;1667;53.238;10.394;2023-07-20T06:41:44;19.00;94.90
3310;DHT22;1667;53.238;10.394;2023-07-20T06:46:42;19.10;94.90
3310;DHT22;1667;53.238;10.394;2023-07-20T06:51:41;19.20;95.00
3310;DHT22;1667;53.238;10.394;2023-07-20T06:56:41;19.30;95.00
3310;DHT22;1667;53.238;10.394;2023-07-20T07:01:42;19.40;95.10
3310;DHT22;1667;53.238;10.394;2023-07-20T07:06:41;19.50;95.00
3310;DHT22;1667;53.238;10.394;2023-07-20T07:11:41;19.50;95.20
3310;DHT22;1667;53.238;10.394;2023-07-20T07:16:39;19.60;95.10
3310;DHT22;1667;53.238;10.394;2023-07-20T07:21:38;19.70;95.00
3310;DHT22;1667;53.238;10.394;2023-07-20T07:26:36;19.80;95.00
3310;DHT22;1667;53.238;10.394;2023-07-20T07:31:37;19.90;94.90
3310;DHT22;1667;53.238;10.394;2023-07-20T07:36:36;19.90;94.50
3310;DHT22;1667;53.238;10.394;2023-07-20T07:41:34;20.00;94.80
3310;DHT22;1667;53.238;10.394;2023-07-20T07:46:33;20.20;94.50
3310;DHT22;1667;53.238;10.394;2023-07-20T07:51:33;20.20;94.10
3310;DHT22;1667;53.238;10.394;2023-07-20T07:56:31;20.30;94.10
3310;DHT22;1667;53.238;10.394;2023-07-20T08:01:30;20.40;93.90
3310;DHT22;1667;53.238;10.394;2023-07-20T08:06:28;20.60;93.80
3310;DHT22;1667;53.238;10.394;2023-07-20T08:11:28;20.70;93.50
3310;DHT22;1667;53.238;10.394;2023-07-20T08:16:28;20.80;92.70
3310;DHT22;1667;53.238;10.394;2023-07-20T08:21:27;20.90;92.70
3310;DHT22;1667;53.238;10.394;2023-07-20T08:26:51;20.90;92.50
3310;DHT22;1667;53.238;10.394;2023-07-20T08:31:50;21.00;91.70
3310;DHT22;1667;53.238;10.394;2023-07-20T08:36:49;21.00;92.00
3310;DHT22;1667;53.238;10.394;2023-07-20T08:41:48;21.10;91.90
3310;DHT22;1667;53.238;10.394;2023-07-20T08:46:49;21.30;91.10
3310;DHT22;1667;53.238;10.394;2023-07-20T08:51:48;21.40;91.20
3310;DHT22;1667;53.238;10.394;2023-07-20T08:56:47;21.50;90.70
3310;DHT22;1667;53.238;10.394;2023-07-20T09:01:47;21.50;90.30
3310;DHT22;1667;53.238;10.394;2023-07-20T09:06:47;21.60;90.10
3310;DHT22;1667;53.238;10.394;2023-07-20T09:11:48;21.50;90.20
3310;DHT22;1667;53.238;10.394;2023-07-20T09:16:49;21.70;90.60
3310;DHT22;1667;53.238;10.394;2023-07-20T09:21:49;21.70;90.00
3310;DHT22;1667;53.238;10.394;2023-07-20T09:26:48;21.90;89.00
3310;DHT22;1667;53.238;10.394;2023-07-20T09:32:00;21.90;86.70
3310;DHT22;1667;53.238;10.394;2023-07-20T09:37:00;22.00;85.10
3310;DHT22;1667;53.238;10.394;2023-07-20T09:42:00;22.20;85.40
3310;DHT22;1667;53.238;10.394;2023-07-20T09:47:04;22.40;85.90
3310;DHT22;1667;53.238;10.394;2023-07-20T09:52:04;22.50;85.10
3310;DHT22;1667;53.238;10.394;2023-07-20T09:57:04;22.80;83.80
3310;DHT22;1667;53.238;10.394;2023-07-20T10:02:15;22.90;84.90
3310;DHT22;1667;53.238;10.394;2023-07-20T10:07:17;22.90;89.20
3310;DHT22;1667;53.238;10.394;2023-07-20T10:12:20;22.80;90.60
3310;DHT22;1667;53.238;10.394;2023-07-20T10:17:21;22.50;90.90
3310;DHT22;1667;53.238;10.394;2023-07-20T10:22:26;22.40;91.00
3310;DHT22;1667;53.238;10.394;2023-07-20T10:27:26;22.40;91.80
3310;DHT22;1667;53.238;10.394;2023-07-20T10:32:25;22.50;92.10
3310;DHT22;1667;53.238;10.394;2023-07-20T10:37:50;22.70;92.30
3310;DHT22;1667;53.238;10.394;2023-07-20T10:42:48;22.90;91.50
3310;DHT22;1667;53.238;10.394;2023-07-20T10:47:48;23.00;90.90
3310;DHT22;1667;53.238;10.394;2023-07-20T10:53:04;23.10;90.60
3310;DHT22;1667;53.238;10.394;2023-07-20T10:58:10;23.20;90.10
3310;DHT22;1667;53.238;10.394;2023-07-20T11:03:27;23.30;89.70
3310;DHT22;1667;53.238;10.394;2023-07-20T11:08:38;23.40;88.20
3310;DHT22;1667;53.238;10.394;2023-07-20T11:13:53;23.60;86.50
3310;DHT22;1667;53.238;10.394;2023-07-20T11:18:55;23.70;85.70
3310;DHT22;1667;53.238;10.394;2023-07-20T11:23:55;23.80;84.30
3310;DHT22;1667;53.238;10.394;2023-07-20T11:28:53;23.70;83.10
3310;DHT22;1667;53.238;10.394;2023-07-20T11:33:53;23.70;84.90
3310;DHT22;1667;53.238;10.394;2023-07-20T11:39:09;24.00;84.20
3310;DHT22;1667;53.238;10.394;2023-07-20T11:44:09;23.80;84.60
3310;DHT22;1667;53.238;10.394;2023-07-20T11:49:12;23.70;81.30
3310;DHT22;1667;53.238;10.394;2023-07-20T11:54:10;23.60;81.60
3310;DHT22;1667;53.238;10.394;2023-07-20T11:59:09;23.60;80.10
3310;DHT22;1667;53.238;10.394;2023-07-20T12:04:07;23.60;79.70
3310;DHT22;1667;53.238;10.394;2023-07-20T12:09:14;23.60;79.90
3310;DHT22;1667;53.238;10.394;2023-07-20T12:14:13;23.80;80.30
3310;DHT22;1667;53.238;10.394;2023-07-20T12:19:14;23.90;80.10
3310;DHT22;1667;53.238;10.394;2023-07-20T12:24:14;23.90;79.60
3310;DHT22;1667;53.238;10.394;2023-07-20T12:29:13;23.90;78.80
3310;DHT22;1667;53.238;10.394;2023-07-20T12:34:11;23.80;78.40
3310;DHT22;1667;53.238;10.394;2023-07-20T12:39:10;23.70;76.90
3310;DHT22;1667;53.238;10.394;2023-07-20T12:44:10;23.60;78.00
3310;DHT22;1667;53.238;10.394;2023-07-20T12:49:08;23.60;78.70
3310;DHT22;1667;53.238;10.394;2023-07-20T12:54:06;23.60;77.70
3310;DHT22;1667;53.238;10.394;2023-07-20T12:59:05;23.60;78.80
3310;DHT22;1667;53.238;10.394;2023-07-20T13:04:05;23.60;79.20
3310;DHT22;1667;53.238;10.394;2023-07-20T13:09:06;23.70;79.50
3310;DHT22;1667;53.238;10.394;2023-07-20T13:14:05;23.90;79.70
3310;DHT22;1667;53.238;10.394;2023-07-20T13:19:05;24.10;80.30
3310;DHT22;1667;53.238;10.394;2023-07-20T13:24:03;24.20;80.50
3310;DHT22;1667;53.238;10.394;2023-07-20T13:29:02;24.40;80.70
3310;DHT22;1667;53.238;10.394;2023-07-20T13:34:01;24.50;80.70
3310;DHT22;1667;53.238;10.394;2023-07-20T13:39:01;24.70;80.70
3310;DHT22;1667;53.238;10.394;2023-07-20T13:44:02;24.80;86.80
3310;DHT22;1667;53.238;10.394;2023-07-20T13:49:02;24.80;84.20
3310;DHT22;1667;53.238;10.394;2023-07-20T13:54:11;24.40;83.90
3310;DHT22;1667;53.238;10.394;2023-07-20T13:59:13;24.10;84.50
3310;DHT22;1667;53.238;10.394;2023-07-20T14:04:12;23.80;85.50
3310;DHT22;1667;53.238;10.394;2023-07-20T14:09:23;23.70;85.60
3310;DHT22;1667;53.238;10.394;2023-07-20T14:14:22;23.50;85.80
3310;DHT22;1667;53.238;10.394;2023-07-20T14:19:20;23.30;86.40
3310;DHT22;1667;53.238;10.394;2023-07-20T14:24:19;23.20;86.40
3310;DHT22;1667;53.238;10.394;2023-07-20T14:29:18;23.10;86.10
3310;DHT22;1667;53.238;10.394;2023-07-20T14:34:21;23.00;86.60
3310;DHT22;1667;53.238;10.394;2023-07-20T14:39:20;23.00;87.90
3310;DHT22;1667;53.238;10.394;2023-07-20T14:44:20;22.90;87.90
3310;DHT22;1667;53.238;10.394;2023-07-20T14:49:19;22.80;88.30
3310;DHT22;1667;53.238;10.394;2023-07-20T15:00:50;22.70;88.50
3310;DHT22;1667;53.238;10.394;2023-07-20T15:05:48;22.60;89.80
3310;DHT22;1667;53.238;10.394;2023-07-20T15:10:48;22.50;90.00
3310;DHT22;1667;53.238;10.394;2023-07-20T15:15:46;22.50;90.00
3310;DHT22;1667;53.238;10.394;2023-07-20T15:20:46;22.50;90.40
3310;DHT22;1667;53.238;10.394;2023-07-20T15:25:51;22.50;90.20
3310;DHT22;1667;53.238;10.394;2023-07-20T15:30:49;22.50;90.20
3310;DHT22;1667;53.238;10.394;2023-07-20T15:35:50;22.50;90.00
3310;DHT22;1667;53.238;10.394;2023-07-20T15:40:49;22.40;90.30
3310;DHT22;1667;53.238;10.394;2023-07-20T15:45:48;22.50;90.40
3310;DHT22;1667;53.238;10.394;2023-07-20T15:50:49;22.50;90.40
3310;DHT22;1667;53.238;10.394;2023-07-20T15:55:53;22.60;90.40
3310;DHT22;1667;53.238;10.394;2023-07-20T16:00:54;22.70;91.00
3310;DHT22;1667;53.238;10.394;2023-07-20T16:05:54;22.70;90.40
3310;DHT22;1667;53.238;10.394;2023-07-20T16:10:53;22.80;90.40
3310;DHT22;1667;53.238;10.394;2023-07-20T16:15:53;22.90;90.60
3310;DHT22;1667;53.238;10.394;2023-07-20T16:20:52;23.00;90.30
3310;DHT22;1667;53.238;10.394;2023-07-20T16:25:52;23.00;90.30
3310;DHT22;1667;53.238;10.394;2023-07-20T16:30:50;23.20;90.50
3310;DHT22;1667;53.238;10.394;2023-07-20T16:35:49;23.30;90.50
3310;DHT22;1667;53.238;10.394;2023-07-20T16:40:47;23.20;86.70
3310;DHT22;1667;53.238;10.394;2023-07-20T16:45:50;23.00;84.50
3310;DHT22;1667;53.238;10.394;2023-07-20T16:50:49;23.10;82.90
3310;DHT22;1667;53.238;10.394;2023-07-20T16:55:48;23.10;86.90
3310;DHT22;1667;53.238;10.394;2023-07-20T17:00:50;23.20;83.60
3310;DHT22;1667;53.238;10.394;2023-07-20T17:05:49;23.30;85.00
3310;DHT22;1667;53.238;10.394;2023-07-20T17:10:47;23.30;83.90
3310;DHT22;1667;53.238;10.394;2023-07-20T17:15:46;23.30;84.00
3310;DHT22;1667;53.238;10.394;2023-07-20T17:20:47;23.20;82.90
3310;DHT22;1667;53.238;10.394;2023-07-20T17:25:49;23.20;83.60
3310;DHT22;1667;53.238;10.394;2023-07-20T17:30:57;23.10;82.90
3310;DHT22;1667;53.238;10.394;2023-07-20T17:35:58;23.10;82.50
3310;DHT22;1667;53.238;10.394;2023-07-20T17:40:59;23.10;82.30
3310;DHT22;1667;53.238;10.394;2023-07-20T17:45:58;23.20;81.40
3310;DHT22;1667;53.238;10.394;2023-07-20T17:51:01;23.00;81.40
3310;DHT22;1667;53.238;10.394;2023-07-20T17:55:59;23.00;81.00
3310;DHT22;1667;53.238;10.394;2023-07-20T18:00:59;23.00;80.10
3310;DHT22;1667;53.238;10.394;2023-07-20T18:06:05;22.90;81.10
3310;DHT22;1667;53.238;10.394;2023-07-20T18:11:04;22.80;80.60
3310;DHT22;1667;53.238;10.394;2023-07-20T18:16:02;22.80;80.00
3310;DHT22;1667;53.238;10.394;2023-07-20T18:34:27;22.60;81.30
3310;DHT22;1667;53.238;10.394;2023-07-20T18:39:26;22.40;81.00
3310;DHT22;1667;53.238;10.394;2023-07-20T18:44:25;22.30;81.00
3310;DHT22;1667;53.238;10.394;2023-07-20T18:49:24;22.30;81.00
3310;DHT22;1667;53.238;10.394;2023-07-20T18:54:24;22.10;81.20
3310;DHT22;1667;53.238;10.394;2023-07-20T18:59:23;22.10;81.10
3310;DHT22;1667;53.238;10.394;2023-07-20T19:04:21;22.00;81.30
3310;DHT22;1667;53.238;10.394;2023-07-20T19:09:21;22.00;81.40
3310;DHT22;1667;53.238;10.394;2023-07-20T19:14:21;21.90;81.40
3310;DHT22;1667;53.238;10.394;2023-07-20T19:19:19;21.80;81.40
3310;DHT22;1667;53.238;10.394;2023-07-20T19:24:18;21.70;81.80
3310;DHT22;1667;53.238;10.394;2023-07-20T19:29:17;21.70;81.70
3310;DHT22;1667;53.238;10.394;2023-07-20T19:34:17;21.60;81.90
3310;DHT22;1667;53.238;10.394;2023-07-20T19:39:16;21.50;81.70
3310;DHT22;1667;53.238;10.394;2023-07-20T19:44:16;21.50;82.10
3310;DHT22;1667;53.238;10.394;2023-07-20T19:49:15;21.40;82.40
3310;DHT22;1667;53.238;10.394;2023-07-20T19:54:15;21.30;82.50
3310;DHT22;1667;53.238;10.394;2023-07-20T19:59:16;21.20;82.30
3310;DHT22;1667;53.238;10.394;2023-07-20T20:04:15;21.20;82.30
3310;DHT22;1667;53.238;10.394;2023-07-20T20:09:21;21.10;82.40
3310;DHT22;1667;53.238;10.394;2023-07-20T20:14:20;21.10;82.70
3310;DHT22;1667;53.238;10.394;2023-07-20T20:19:19;21.00;83.20
3310;DHT22;1667;53.238;10.394;2023-07-20T20:24:18;20.90;82.30
3310;DHT22;1667;53.238;10.394;2023-07-20T20:35:23;20.80;83.40
3310;DHT22;1667;53.238;10.394;2023-07-20T20:40:22;20.70;83.30
3310;DHT22;1667;53.238;10.394;2023-07-20T20:45:20;20.70;83.50
3310;DHT22;1667;53.238;10.394;2023-07-20T20:50:27;20.60;83.50
3310;DHT22;1667;53.238;10.394;2023-07-20T20:55:26;20.60;84.00
3310;DHT22;1667;53.238;10.394;2023-07-20T21:00:25;20.50;83.60
3310;DHT22;1667;53.238;10.394;2023-07-20T21:05:23;20.50;83.80
3310;DHT22;1667;53.238;10.394;2023-07-20T21:10:23;20.40;83.40
3310;DHT22;1667;53.238;10.394;2023-07-20T21:15:22;20.40;83.90
3310;DHT22;1667;53.238;10.394;2023-07-20T21:20:21;20.30;83.70
3310;DHT22;1667;53.238;10.394;2023-07-20T21:25:19;20.20;83.60
3310;DHT22;1667;53.238;10.394;2023-07-20T21:30:19;20.20;83.70
3310;DHT22;1667;53.238;10.394;2023-07-20T21:35:18;20.10;83.80
3310;DHT22;1667;53.238;10.394;2023-07-20T21:40:17;20.00;83.40
3310;DHT22;1667;53.238;10.394;2023-07-20T21:45:15;19.90;84.00
3310;DHT22;1667;53.238;10.394;2023-07-20T21:50:15;19.90;84.10
3310;DHT22;1667;53.238;10.394;2023-07-20T21:55:14;19.80;84.20
3310;DHT22;1667;53.238;10.394;2023-07-20T22:00:14;19.70;84.50
3310;DHT22;1667;53.238;10.394;2023-07-20T22:05:16;19.70;84.40
3310;DHT22;1667;53.238;10.394;2023-07-20T22:10:18;19.60;84.80
3310;DHT22;1667;53.238;10.394;2023-07-20T22:15:17;19.60;85.40
3310;DHT22;1667;53.238;10.394;2023-07-20T22:20:17;19.60;85.50
3310;DHT22;1667;53.238;10.394;2023-07-20T22:25:18;19.50;84.90
3310;DHT22;1667;53.238;10.394;2023-07-20T22:30:16;19.50;85.30
3310;DHT22;1667;53.238;10.394;2023-07-20T22:35:17;19.40;85.70
3310;DHT22;1667;53.238;10.394;2023-07-20T22:40:16;19.40;85.60
3310;DHT22;1667;53.238;10.394;2023-07-20T22:45:15;19.30;85.60
3310;DHT22;1667;53.238;10.394;2023-07-20T22:50:13;19.30;86.10
3310;DHT22;1667;53.238;10.394;2023-07-20T22:55:16;19.20;86.10
3310;DHT22;1667;53.238;10.394;2023-07-20T23:00:15;19.20;86.20
3310;DHT22;1667;53.238;10.394;2023-07-20T23:05:14;19.20;86.10
3310;DHT22;1667;53.238;10.394;2023-07-20T23:10:13;19.10;86.30
3310;DHT22;1667;53.238;10.394;2023-07-20T23:15:13;19.10;86.50
3310;DHT22;1667;53.238;10.394;2023-07-20T23:20:12;19.10;86.80
3310;DHT22;1667;53.238;10.394;2023-07-20T23:25:16;19.00;86.60
3310;DHT22;1667;53.238;10.394;2023-07-20T23:30:16;18.90;86.50
3310;DHT22;1667;53.238;10.394;2023-07-20T23:35:15;18.90;86.80
3310;DHT22;1667;53.238;10.394;2023-07-20T23:40:16;18.90;86.90
3310;DHT22;1667;53.238;10.394;2023-07-20T23:45:17;18.80;86.80
3310;DHT22;1667;53.238;10.394;2023-07-20T23:50:16;18.80;87.00
3310;DHT22;1667;53.238;10.394;2023-07-20T23:55:15;18.70;86.60
